createdAt,value
2018-09-23T00:01:47.209Z,52.9
2018-09-23T00:06:49.654Z,52.9
2018-09-23T00:11:52.144Z,52.9
2018-09-23T00:16:54.588Z,53.2
2018-09-23T00:21:56.997Z,53.4
2018-09-23T00:26:59.563Z,53.3
2018-09-23T00:32:01.860Z,53.5
2018-09-23T00:37:04.294Z,53.7
2018-09-23T00:42:06.994Z,53.9
2018-09-23T00:47:09.181Z,54.1
2018-09-23T00:52:11.605Z,54.5
2018-09-23T00:57:14.098Z,54.7
2018-09-23T01:02:16.494Z,54.8
2018-09-23T01:07:18.935Z,55
2018-09-23T01:12:21.413Z,55.2
2018-09-23T01:17:23.861Z,55.3
2018-09-23T01:22:26.266Z,55.3
2018-09-23T01:27:28.723Z,55.5
2018-09-23T01:32:31.148Z,55.7
2018-09-23T01:42:36.110Z,55.9
2018-09-23T01:47:38.445Z,56
2018-09-23T01:52:40.892Z,56.1
2018-09-23T01:57:43.381Z,56.3
2018-09-23T02:02:45.783Z,56.3
2018-09-23T02:07:48.256Z,56.4
2018-09-23T02:12:50.660Z,56.3
2018-09-23T02:17:53.081Z,56.2
2018-09-23T02:22:55.544Z,56.1
2018-09-23T02:27:58.011Z,56
2018-09-23T02:33:00.403Z,56
2018-09-23T02:38:02.840Z,56
2018-09-23T02:43:05.340Z,56
2018-09-23T02:48:07.781Z,56
2018-09-23T02:53:10.195Z,56.1
2018-09-23T02:58:12.623Z,56.2
2018-09-23T03:03:15.082Z,56.3
2018-09-23T03:08:17.498Z,56.4
2018-09-23T03:13:19.948Z,56.6
2018-09-23T03:18:22.404Z,56.8
2018-09-23T03:23:24.827Z,57
2018-09-23T03:28:27.308Z,57.1
2018-09-23T03:33:29.793Z,57.1
2018-09-23T03:38:32.127Z,57.1
2018-09-23T03:43:34.594Z,57.1
2018-09-23T03:48:37.014Z,57
2018-09-23T03:53:39.498Z,57
2018-09-23T03:58:41.890Z,56.9
2018-09-23T04:03:44.365Z,56.9
2018-09-23T04:08:46.766Z,56.9
2018-09-23T04:13:49.373Z,56.8
2018-09-23T04:18:51.811Z,56.6
2018-09-23T04:23:54.166Z,56.6
2018-09-23T04:28:56.571Z,56.5
2018-09-23T04:33:59.131Z,56.5
2018-09-23T04:39:01.490Z,56.6
2018-09-23T04:44:03.851Z,56.7
2018-09-23T04:49:06.430Z,56.8
2018-09-23T04:54:08.786Z,56.8
2018-09-23T04:59:11.178Z,56.9
2018-09-23T05:04:13.611Z,56.9
2018-09-23T05:09:16.052Z,57
2018-09-23T05:14:18.499Z,57
2018-09-23T05:19:21.087Z,57.1
2018-09-23T05:24:23.427Z,57.1
2018-09-23T05:29:25.814Z,57.1
2018-09-23T05:34:28.249Z,57.1
2018-09-23T05:39:30.697Z,57.1
2018-09-23T05:44:33.128Z,57.2
2018-09-23T05:49:35.634Z,57.2
2018-09-23T05:54:38.031Z,57.2
2018-09-23T05:59:40.448Z,57.2
2018-09-23T06:04:42.908Z,57.2
2018-09-23T06:09:45.327Z,57.3
2018-09-23T06:14:47.804Z,57.5
2018-09-23T06:19:50.203Z,57.6
2018-09-23T06:24:52.660Z,57.7
2018-09-23T06:29:55.095Z,57.7
2018-09-23T06:34:57.537Z,57.9
2018-09-23T06:40:00.034Z,58
2018-09-23T06:45:02.450Z,58.1
2018-09-23T06:50:05.109Z,58.4
2018-09-23T06:55:07.323Z,58.3
2018-09-23T07:00:09.755Z,58.3
2018-09-23T07:05:12.254Z,58.4
2018-09-23T07:10:14.659Z,58.7
2018-09-23T07:15:17.110Z,58.9
2018-09-23T07:20:19.480Z,58.8
2018-09-23T07:25:22.102Z,58.6
2018-09-23T07:30:24.371Z,58.6
2018-09-23T07:35:26.798Z,58.7
2018-09-23T07:40:29.331Z,58.7
2018-09-23T07:45:31.779Z,59
2018-09-23T07:50:34.124Z,59
2018-09-23T07:55:36.580Z,59.2
2018-09-23T08:00:39.026Z,59.1
2018-09-23T08:05:41.453Z,59
2018-09-23T08:10:43.894Z,59
2018-09-23T08:15:46.340Z,58.9
2018-09-23T08:20:48.827Z,59
2018-09-23T08:25:51.274Z,58.7
2018-09-23T08:30:53.659Z,58.7
2018-09-23T08:35:56.135Z,58.7
2018-09-23T08:40:58.546Z,58.8
2018-09-23T08:46:01.191Z,59
2018-09-23T08:51:03.415Z,59.2
2018-09-23T08:56:05.857Z,59.6
2018-09-23T09:01:08.294Z,60.4
2018-09-23T09:06:10.724Z,60.8
2018-09-23T09:11:13.192Z,61
2018-09-23T09:16:15.641Z,61.6
2018-09-23T09:21:18.044Z,62.4
2018-09-23T09:26:20.521Z,62.8
2018-09-23T09:31:23.184Z,63
2018-09-23T09:36:25.397Z,63.2
2018-09-23T09:41:27.797Z,63.2
2018-09-23T09:46:30.267Z,63.3
2018-09-23T09:51:32.696Z,63.6
2018-09-23T09:56:35.169Z,64.3
2018-09-23T10:01:37.624Z,64.6
2018-09-23T10:06:40.072Z,64.9
2018-09-23T10:11:42.449Z,65.1
2018-09-23T10:16:44.938Z,65.4
2018-09-23T10:21:47.352Z,66
2018-09-23T10:26:49.901Z,66.4
2018-09-23T10:31:52.245Z,66.6
2018-09-23T10:36:54.641Z,66.9
2018-09-23T10:41:57.110Z,67.5
2018-09-23T10:46:59.692Z,67.8
2018-09-23T10:52:01.995Z,68.3
2018-09-23T10:57:04.463Z,68.5
2018-09-23T11:02:06.884Z,68.7
2018-09-23T11:07:09.321Z,69.2
2018-09-23T11:12:11.925Z,69.8
2018-09-23T11:17:14.208Z,70.2
2018-09-23T11:22:16.632Z,70.3
2018-09-23T11:27:19.071Z,70.4
2018-09-23T11:32:21.523Z,70.7
2018-09-23T11:37:24.049Z,71.4
2018-09-23T11:42:26.375Z,71.9
2018-09-23T11:47:28.832Z,72.1
2018-09-23T11:52:31.362Z,72.5
2018-09-23T11:57:34.072Z,72.9
2018-09-23T12:02:36.171Z,73.8
2018-09-23T12:07:38.566Z,74.5
2018-09-23T12:12:41.019Z,74.7
2018-09-23T12:17:43.480Z,74.8
2018-09-23T12:22:45.947Z,75
2018-09-23T12:27:48.429Z,75.2
2018-09-23T12:32:50.794Z,75.6
2018-09-23T12:37:53.209Z,76.3
2018-09-23T12:42:55.680Z,76.7
2018-09-23T12:47:58.120Z,77
2018-09-23T12:53:00.533Z,77.2
2018-09-23T12:58:03.045Z,77.4
2018-09-23T13:03:05.414Z,77.6
2018-09-23T13:08:07.872Z,77.7
2018-09-23T13:13:10.303Z,78
2018-09-23T13:18:12.854Z,78
2018-09-23T13:23:15.195Z,78.3
2018-09-23T13:28:17.666Z,78.7
2018-09-23T13:33:20.058Z,79.2
2018-09-23T13:38:22.493Z,79.4
2018-09-23T13:43:24.957Z,79.8
2018-09-23T13:48:27.415Z,80.6
2018-09-23T13:53:29.840Z,81.3
2018-09-23T13:58:32.265Z,82.7
2018-09-23T14:03:34.715Z,84.5
2018-09-23T14:08:37.165Z,85.1
2018-09-23T14:13:39.573Z,84.8
2018-09-23T14:18:42.098Z,84.8
2018-09-23T14:23:44.640Z,85.7
2018-09-23T14:28:46.904Z,85.9
2018-09-23T14:33:49.371Z,86.8
2018-09-23T14:38:51.889Z,87.1
2018-09-23T14:43:54.250Z,87.4
2018-09-23T14:48:56.782Z,87.8
2018-09-23T14:53:59.126Z,89.5
2018-09-23T14:59:01.574Z,90.1
2018-09-23T15:04:04.031Z,89.3
2018-09-23T15:09:06.494Z,88.7
2018-09-23T15:14:08.915Z,89.1
2018-09-23T15:19:11.323Z,89.6
2018-09-23T15:24:13.751Z,89.9
2018-09-23T15:29:16.183Z,90.1
2018-09-23T15:34:18.706Z,90.1
2018-09-23T15:39:21.100Z,90.1
2018-09-23T15:44:23.519Z,90.2
2018-09-23T15:49:25.948Z,90.4
2018-09-23T15:54:28.381Z,90.3
2018-09-23T15:59:30.923Z,90.6
2018-09-23T16:04:33.252Z,90.5
2018-09-23T16:09:35.704Z,90.6
2018-09-23T16:14:38.257Z,90.4
2018-09-23T16:24:43.062Z,94
2018-09-23T16:29:45.466Z,94.3
2018-09-23T16:34:47.898Z,94.9
2018-09-23T16:39:50.365Z,95.7
2018-09-23T16:44:52.775Z,96.2
2018-09-23T16:49:55.210Z,96.5
2018-09-23T16:54:57.840Z,96.8
2018-09-23T17:00:00.145Z,97
2018-09-23T17:05:02.552Z,97.2
2018-09-23T17:10:05.020Z,97.5
2018-09-23T17:15:07.478Z,97.7
2018-09-23T17:20:09.967Z,97.8
2018-09-23T17:25:12.370Z,97.9
2018-09-23T17:30:14.828Z,97.8
2018-09-23T17:35:17.196Z,97.9
2018-09-23T17:40:19.624Z,98.1
2018-09-23T17:45:22.233Z,98.2
2018-09-23T17:50:24.528Z,98.3
2018-09-23T17:55:27.077Z,98.4
2018-09-23T18:00:29.399Z,98.5
2018-09-23T18:05:31.863Z,98.3
2018-09-23T18:10:34.251Z,98
2018-09-23T18:15:36.697Z,96.5
2018-09-23T18:20:39.127Z,96.2
2018-09-23T18:25:41.752Z,95.7
2018-09-23T18:30:44.026Z,95.2
2018-09-23T18:35:46.472Z,95.2
2018-09-23T18:40:48.951Z,95
2018-09-23T18:45:52.065Z,95.2
2018-09-23T18:50:53.870Z,94.8
2018-09-23T18:55:56.255Z,95
2018-09-23T19:00:58.658Z,94.7
2018-09-23T19:06:01.188Z,94.5
2018-09-23T19:11:03.557Z,94.5
2018-09-23T19:16:06.162Z,94.1
2018-09-23T19:21:08.407Z,93.9
2018-09-23T19:26:10.971Z,93.9
2018-09-23T19:31:13.319Z,93.6
2018-09-23T19:36:15.741Z,93.4
2018-09-23T19:41:18.188Z,93.2
2018-09-23T19:46:20.638Z,93.2
2018-09-23T19:51:23.110Z,92.5
2018-09-23T19:56:25.553Z,91.7
2018-09-23T20:01:27.944Z,91.8
2018-09-23T20:06:30.440Z,90.7
2018-09-23T20:11:32.831Z,89.9
2018-09-23T20:16:35.269Z,88.5
2018-09-23T20:21:37.698Z,88.8
2018-09-23T20:26:40.138Z,89.6
2018-09-23T20:31:42.590Z,89.3
2018-09-23T20:36:45.018Z,89.8
2018-09-23T20:41:47.488Z,89.8
2018-09-23T20:46:49.890Z,88.7
2018-09-23T20:51:52.336Z,89.1
2018-09-23T20:56:54.833Z,88.8
2018-09-23T21:01:57.306Z,88
2018-09-23T21:06:59.663Z,88.1
2018-09-23T21:12:02.108Z,87.9
2018-09-23T21:17:04.558Z,86.3
2018-09-23T21:22:07.021Z,86.6
2018-09-23T21:27:09.510Z,86.7
2018-09-23T21:32:11.851Z,86.4
2018-09-23T21:42:16.740Z,85.1
2018-09-23T21:47:19.176Z,84
2018-09-23T21:52:21.604Z,83.9
2018-09-23T21:57:24.255Z,84.1
2018-09-23T22:02:26.676Z,85.1
2018-09-23T22:07:28.994Z,84.7
2018-09-23T22:12:31.749Z,84.1
2018-09-23T22:17:33.962Z,84.5
2018-09-23T22:22:36.343Z,84.6
2018-09-23T22:27:38.860Z,84.8
2018-09-23T22:32:41.183Z,85
2018-09-23T22:37:43.600Z,85.4
2018-09-23T22:42:46.022Z,85.9
2018-09-23T22:47:48.475Z,85.5
2018-09-23T22:52:50.935Z,86.2
2018-09-23T22:57:53.381Z,86
2018-09-23T23:02:55.787Z,85
2018-09-23T23:07:58.207Z,85.3
2018-09-23T23:13:00.668Z,85.4
2018-09-23T23:18:03.277Z,85.4
2018-09-23T23:23:05.560Z,85.1
2018-09-23T23:28:08.288Z,85
2018-09-23T23:33:10.421Z,85.2
2018-09-23T23:38:12.839Z,85.4
2018-09-23T23:43:15.292Z,85.2
2018-09-23T23:48:17.741Z,85.3
2018-09-23T23:53:20.175Z,85.2
2018-09-23T23:58:22.653Z,85.4
